Urb Las Villas, Puerto Rico
Current Conditions -  °F | °C
As of 9:56 AM on Friday 28 Nov 2014 (Local Time) from TJSJ Reporting Station
Few Clouds Few Clouds  
Wind Chill: 82°   Ceiling: Unl
Heat Index: 87°   Visibility: 10mi
Dew Point: 73°   Wind: 5mph
Humidity: 74%   Direction: 40°NE
Pressure: 30"   Gusts: NA
Location:  18.3866°N, 66.1135°W
Report Text: TJSJ 281356Z 04004KT 10SM FEW028 28/23 A3000 RMK AO2 SLP159 P0002 T02780228
Loading
Personal Weather Stations






























Interactive Weather Map New forecast layout! Learn more

10-Day Weather Forecast

Advertisements
Track Severe Weather on mobile